sensor_id;sensor_type;location;lat;lon;timestamp;temperature;humidity
27368;DHT22;14839;48.106;11.618;2022-12-18T05:02:33;-4.80;94.60
27368;DHT22;14839;48.106;11.618;2022-12-18T05:04:58;-4.80;94.60
27368;DHT22;14839;48.106;11.618;2022-12-18T05:07:24;-4.90;94.60
27368;DHT22;14839;48.106;11.618;2022-12-18T05:09:50;-4.80;94.60
27368;DHT22;14839;48.106;11.618;2022-12-18T05:12:15;-4.80;94.60
27368;DHT22;14839;48.106;11.618;2022-12-18T05:14:41;-4.90;94.60
27368;DHT22;14839;48.106;11.618;2022-12-18T05:17:07;-4.80;94.60
27368;DHT22;14839;48.106;11.618;2022-12-18T05:19:32;-4.80;94.60
27368;DHT22;14839;48.106;11.618;2022-12-18T05:21:58;-4.90;94.60
27368;DHT22;14839;48.106;11.618;2022-12-18T05:24:24;-4.90;94.60
27368;DHT22;14839;48.106;11.618;2022-12-18T05:26:50;-4.90;94.60
27368;DHT22;14839;48.106;11.618;2022-12-18T05:29:15;-4.90;94.60
27368;DHT22;14839;48.106;11.618;2022-12-18T05:31:41;-4.80;94.60
27368;DHT22;14839;48.106;11.618;2022-12-18T05:34:07;-4.90;94.60
27368;DHT22;14839;48.106;11.618;2022-12-18T05:36:32;-4.80;94.60
27368;DHT22;14839;48.106;11.618;2022-12-18T05:38:58;-4.80;94.60
27368;DHT22;14839;48.106;11.618;2022-12-18T05:41:25;-4.80;94.60
27368;DHT22;14839;48.106;11.618;2022-12-18T05:43:51;-4.90;94.60
27368;DHT22;14839;48.106;11.618;2022-12-18T05:46:17;-4.80;94.60
27368;DHT22;14839;48.106;11.618;2022-12-18T05:48:44;-4.80;94.60
27368;DHT22;14839;48.106;11.618;2022-12-18T05:51:15;-4.70;94.60
27368;DHT22;14839;48.106;11.618;2022-12-18T05:53:41;-4.70;94.60
27368;DHT22;14839;48.106;11.618;2022-12-18T05:56:10;-4.70;94.60
27368;DHT22;14839;48.106;11.618;2022-12-18T05:58:36;-4.80;94.60
27368;DHT22;14839;48.106;11.618;2022-12-18T06:03:39;-4.70;94.60
27368;DHT22;14839;48.106;11.618;2022-12-18T06:06:16;-4.80;94.60
27368;DHT22;14839;48.106;11.618;2022-12-18T06:08:43;-4.80;94.60
27368;DHT22;14839;48.106;11.618;2022-12-18T06:11:08;-4.90;94.60
27368;DHT22;14839;48.106;11.618;2022-12-18T06:13:34;-4.80;94.60
27368;DHT22;14839;48.106;11.618;2022-12-18T06:16:05;-4.80;94.60
27368;DHT22;14839;48.106;11.618;2022-12-18T06:18:31;-4.90;94.60
27368;DHT22;14839;48.106;11.618;2022-12-18T06:20:57;-4.90;94.60
27368;DHT22;14839;48.106;11.618;2022-12-18T06:23:23;-4.90;94.60
27368;DHT22;14839;48.106;11.618;2022-12-18T06:25:49;-4.90;94.60
27368;DHT22;14839;48.106;11.618;2022-12-18T06:28:15;-4.90;94.60
27368;DHT22;14839;48.106;11.618;2022-12-18T06:30:43;-5.00;94.60
27368;DHT22;14839;48.106;11.618;2022-12-18T06:33:09;-4.90;94.60
27368;DHT22;14839;48.106;11.618;2022-12-18T06:35:34;-4.90;94.60
27368;DHT22;14839;48.106;11.618;2022-12-18T06:38:01;-4.90;94.60
27368;DHT22;14839;48.106;11.618;2022-12-18T06:40:27;-4.80;94.60
27368;DHT22;14839;48.106;11.618;2022-12-18T06:42:53;-4.90;94.60
27368;DHT22;14839;48.106;11.618;2022-12-18T06:45:18;-4.80;94.60
27368;DHT22;14839;48.106;11.618;2022-12-18T06:47:44;-4.80;94.60
27368;DHT22;14839;48.106;11.618;2022-12-18T06:50:10;-4.80;94.60
27368;DHT22;14839;48.106;11.618;2022-12-18T06:52:35;-4.80;94.60
27368;DHT22;14839;48.106;11.618;2022-12-18T06:55:02;-4.90;94.60
27368;DHT22;14839;48.106;11.618;2022-12-18T06:57:28;-4.90;94.60
27368;DHT22;14839;48.106;11.618;2022-12-18T06:59:54;-4.90;94.60
27368;DHT22;14839;48.106;11.618;2022-12-18T07:02:19;-5.00;94.60
27368;DHT22;14839;48.106;11.618;2022-12-18T07:04:45;-5.10;94.60
27368;DHT22;14839;48.106;11.618;2022-12-18T07:07:11;-5.10;94.60
27368;DHT22;14839;48.106;11.618;2022-12-18T07:09:36;-5.10;94.60
27368;DHT22;14839;48.106;11.618;2022-12-18T07:12:02;-5.10;94.60
27368;DHT22;14839;48.106;11.618;2022-12-18T07:14:27;-5.10;94.60
27368;DHT22;14839;48.106;11.618;2022-12-18T07:16:53;-5.20;94.60
27368;DHT22;14839;48.106;11.618;2022-12-18T07:19:19;-5.10;94.60
27368;DHT22;14839;48.106;11.618;2022-12-18T07:21:44;-5.10;94.60
27368;DHT22;14839;48.106;11.618;2022-12-18T07:24:10;-5.20;94.60
27368;DHT22;14839;48.106;11.618;2022-12-18T07:26:36;-5.30;94.60
27368;DHT22;14839;48.106;11.618;2022-12-18T07:29:01;-5.30;94.60
27368;DHT22;14839;48.106;11.618;2022-12-18T07:31:27;-5.40;94.60
27368;DHT22;14839;48.106;11.618;2022-12-18T07:33:53;-5.40;94.60
27368;DHT22;14839;48.106;11.618;2022-12-18T07:36:19;-5.30;94.60
27368;DHT22;14839;48.106;11.618;2022-12-18T07:38:47;-5.30;94.60
27368;DHT22;14839;48.106;11.618;2022-12-18T07:41:13;-5.30;94.60
27368;DHT22;14839;48.106;11.618;2022-12-18T07:43:40;-5.30;94.60
27368;DHT22;14839;48.106;11.618;2022-12-18T07:46:07;-5.30;94.60
27368;DHT22;14839;48.106;11.618;2022-12-18T07:48:33;-5.30;94.60
27368;DHT22;14839;48.106;11.618;2022-12-18T07:51:00;-5.20;94.60
27368;DHT22;14839;48.106;11.618;2022-12-18T07:53:26;-5.20;94.60
27368;DHT22;14839;48.106;11.618;2022-12-18T07:56:00;-5.10;94.60
27368;DHT22;14839;48.106;11.618;2022-12-18T07:58:27;-5.10;94.60
27368;DHT22;14839;48.106;11.618;2022-12-18T08:00:53;-5.00;94.60
27368;DHT22;14839;48.106;11.618;2022-12-18T08:03:19;-4.90;94.60
27368;DHT22;14839;48.106;11.618;2022-12-18T08:05:45;-4.80;94.60
27368;DHT22;14839;48.106;11.618;2022-12-18T08:08:10;-4.80;94.60
27368;DHT22;14839;48.106;11.618;2022-12-18T08:10:37;-4.70;94.60
27368;DHT22;14839;48.106;11.618;2022-12-18T08:13:03;-4.80;94.60
27368;DHT22;14839;48.106;11.618;2022-12-18T08:15:28;-4.80;94.60
27368;DHT22;14839;48.106;11.618;2022-12-18T08:17:56;-4.80;94.60
27368;DHT22;14839;48.106;11.618;2022-12-18T08:20:22;-4.80;94.60
27368;DHT22;14839;48.106;11.618;2022-12-18T08:22:48;-4.80;94.60
27368;DHT22;14839;48.106;11.618;2022-12-18T08:25:14;-4.70;94.60
27368;DHT22;14839;48.106;11.618;2022-12-18T08:27:39;-4.60;94.60
27368;DHT22;14839;48.106;11.618;2022-12-18T08:30:05;-4.60;94.60
27368;DHT22;14839;48.106;11.618;2022-12-18T08:32:31;-4.60;94.60
27368;DHT22;14839;48.106;11.618;2022-12-18T08:34:58;-4.60;94.60
27368;DHT22;14839;48.106;11.618;2022-12-18T08:37:24;-4.80;94.60
27368;DHT22;14839;48.106;11.618;2022-12-18T08:39:49;-4.70;94.60
27368;DHT22;14839;48.106;11.618;2022-12-18T08:42:15;-4.80;94.60
27368;DHT22;14839;48.106;11.618;2022-12-18T08:44:59;-4.80;94.60
27368;DHT22;14839;48.106;11.618;2022-12-18T08:47:25;-4.80;94.60
27368;DHT22;14839;48.106;11.618;2022-12-18T08:49:51;-4.70;94.60
27368;DHT22;14839;48.106;11.618;2022-12-18T08:52:16;-4.60;94.60
27368;DHT22;14839;48.106;11.618;2022-12-18T08:54:42;-4.60;94.60
27368;DHT22;14839;48.106;11.618;2022-12-18T08:57:08;-4.70;94.60
27368;DHT22;14839;48.106;11.618;2022-12-18T08:59:33;-4.60;94.60
27368;DHT22;14839;48.106;11.618;2022-12-18T09:01:59;-4.60;94.60
27368;DHT22;14839;48.106;11.618;2022-12-18T09:04:25;-4.50;94.60
27368;DHT22;14839;48.106;11.618;2022-12-18T09:06:50;-4.50;94.60
27368;DHT22;14839;48.106;11.618;2022-12-18T09:09:16;-4.40;94.60
27368;DHT22;14839;48.106;11.618;2022-12-18T09:11:42;-4.60;94.60
27368;DHT22;14839;48.106;11.618;2022-12-18T09:14:09;-4.60;94.60
27368;DHT22;14839;48.106;11.618;2022-12-18T09:16:35;-4.80;94.60
27368;DHT22;14839;48.106;11.618;2022-12-18T09:19:04;-4.80;94.60
27368;DHT22;14839;48.106;11.618;2022-12-18T09:21:33;-4.80;94.60
27368;DHT22;14839;48.106;11.618;2022-12-18T09:23:59;-4.80;94.60
27368;DHT22;14839;48.106;11.618;2022-12-18T09:26:26;-4.70;94.60
27368;DHT22;14839;48.106;11.618;2022-12-18T09:28:52;-4.50;94.60
27368;DHT22;14839;48.106;11.618;2022-12-18T09:31:20;-4.30;94.60
27368;DHT22;14839;48.106;11.618;2022-12-18T09:33:46;-4.30;94.60
27368;DHT22;14839;48.106;11.618;2022-12-18T09:36:14;-4.30;94.60
27368;DHT22;14839;48.106;11.618;2022-12-18T09:38:40;-4.40;94.60
27368;DHT22;14839;48.106;11.618;2022-12-18T09:44:23;-4.40;94.60
27368;DHT22;14839;48.106;11.618;2022-12-18T09:47:04;-4.20;94.60
27368;DHT22;14839;48.106;11.618;2022-12-18T09:49:36;-4.40;94.60
27368;DHT22;14839;48.106;11.618;2022-12-18T09:52:08;-4.50;94.60
27368;DHT22;14839;48.106;11.618;2022-12-18T09:54:41;-4.30;94.60
27368;DHT22;14839;48.106;11.618;2022-12-18T09:57:13;-4.20;94.60
27368;DHT22;14839;48.106;11.618;2022-12-18T09:59:41;-4.10;94.60
27368;DHT22;14839;48.106;11.618;2022-12-18T10:02:15;-4.40;94.60
27368;DHT22;14839;48.106;11.618;2022-12-18T10:04:42;-4.50;94.60
27368;DHT22;14839;48.106;11.618;2022-12-18T10:07:47;-4.40;94.60
27368;DHT22;14839;48.106;11.618;2022-12-18T10:15:24;-4.40;94.60
27368;DHT22;14839;48.106;11.618;2022-12-18T10:18:20;-4.60;94.60
27368;DHT22;14839;48.106;11.618;2022-12-18T10:20:52;-4.50;94.60
27368;DHT22;14839;48.106;11.618;2022-12-18T10:23:38;-4.60;94.60
27368;DHT22;14839;48.106;11.618;2022-12-18T10:26:07;-4.80;94.60
27368;DHT22;14839;48.106;11.618;2022-12-18T10:28:36;-4.60;94.60
27368;DHT22;14839;48.106;11.618;2022-12-18T10:31:02;-4.60;94.60
27368;DHT22;14839;48.106;11.618;2022-12-18T10:33:31;-4.60;94.60
27368;DHT22;14839;48.106;11.618;2022-12-18T10:35:58;-4.70;94.60
27368;DHT22;14839;48.106;11.618;2022-12-18T10:38:28;-4.70;94.60
27368;DHT22;14839;48.106;11.618;2022-12-18T10:41:00;-4.70;94.60
27368;DHT22;14839;48.106;11.618;2022-12-18T10:43:35;-4.70;94.60
27368;DHT22;14839;48.106;11.618;2022-12-18T10:51:36;-4.60;94.60
27368;DHT22;14839;48.106;11.618;2022-12-18T10:54:16;-4.40;94.60
27368;DHT22;14839;48.106;11.618;2022-12-18T10:56:42;-4.20;94.60
27368;DHT22;14839;48.106;11.618;2022-12-18T10:59:10;-4.20;94.60
27368;DHT22;14839;48.106;11.618;2022-12-18T11:01:57;-4.00;94.60
27368;DHT22;14839;48.106;11.618;2022-12-18T11:04:32;-4.10;94.60
27368;DHT22;14839;48.106;11.618;2022-12-18T11:07:00;-4.00;94.60
27368;DHT22;14839;48.106;11.618;2022-12-18T11:09:59;-4.00;94.60
27368;DHT22;14839;48.106;11.618;2022-12-18T11:12:28;-4.00;94.60
27368;DHT22;14839;48.106;11.618;2022-12-18T11:14:55;-4.00;94.60
27368;DHT22;14839;48.106;11.618;2022-12-18T11:19:53;-3.50;94.60
27368;DHT22;14839;48.106;11.618;2022-12-18T11:22:30;-3.30;94.60
27368;DHT22;14839;48.106;11.618;2022-12-18T11:30:35;-2.60;94.60
27368;DHT22;14839;48.106;11.618;2022-12-18T11:35:44;-2.70;94.60
27368;DHT22;14839;48.106;11.618;2022-12-18T11:41:33;-2.80;94.60
27368;DHT22;14839;48.106;11.618;2022-12-18T11:44:26;-2.90;94.60
27368;DHT22;14839;48.106;11.618;2022-12-18T11:46:58;-3.10;94.60
27368;DHT22;14839;48.106;11.618;2022-12-18T11:49:30;-3.20;94.60
27368;DHT22;14839;48.106;11.618;2022-12-18T11:52:24;-3.20;94.60
27368;DHT22;14839;48.106;11.618;2022-12-18T11:54:58;-3.30;94.60
27368;DHT22;14839;48.106;11.618;2022-12-18T11:57:53;-3.30;94.60
27368;DHT22;14839;48.106;11.618;2022-12-18T12:00:23;-3.30;94.60
27368;DHT22;14839;48.106;11.618;2022-12-18T12:13:53;-3.20;94.60
27368;DHT22;14839;48.106;11.618;2022-12-18T12:19:03;-3.70;94.60
27368;DHT22;14839;48.106;11.618;2022-12-18T12:30:10;-3.70;94.60
27368;DHT22;14839;48.106;11.618;2022-12-18T12:35:32;-3.40;94.60
27368;DHT22;14839;48.106;11.618;2022-12-18T12:38:09;-3.40;94.60
27368;DHT22;14839;48.106;11.618;2022-12-18T12:40:49;-3.80;94.60
27368;DHT22;14839;48.106;11.618;2022-12-18T12:43:35;-4.20;94.60
27368;DHT22;14839;48.106;11.618;2022-12-18T12:46:14;-4.30;94.60
27368;DHT22;14839;48.106;11.618;2022-12-18T12:51:32;-4.20;94.60
27368;DHT22;14839;48.106;11.618;2022-12-18T12:54:00;-4.30;94.60
27368;DHT22;14839;48.106;11.618;2022-12-18T12:56:40;-4.10;94.60
27368;DHT22;14839;48.106;11.618;2022-12-18T12:59:24;-4.00;94.60
27368;DHT22;14839;48.106;11.618;2022-12-18T13:02:22;-3.90;94.60
27368;DHT22;14839;48.106;11.618;2022-12-18T13:07:41;-3.80;94.60
27368;DHT22;14839;48.106;11.618;2022-12-18T13:10:32;-3.90;94.60
27368;DHT22;14839;48.106;11.618;2022-12-18T13:13:12;-3.80;94.60
27368;DHT22;14839;48.106;11.618;2022-12-18T13:15:43;-3.50;94.60
27368;DHT22;14839;48.106;11.618;2022-12-18T13:34:26;-3.70;94.60
27368;DHT22;14839;48.106;11.618;2022-12-18T13:36:54;-3.50;94.60
27368;DHT22;14839;48.106;11.618;2022-12-18T13:42:37;-3.50;94.60
27368;DHT22;14839;48.106;11.618;2022-12-18T13:44:38;-3.70;94.60
27368;DHT22;14839;48.106;11.618;2022-12-18T13:49:50;-3.80;94.60
27368;DHT22;14839;48.106;11.618;2022-12-18T13:52:22;-3.80;94.60
27368;DHT22;14839;48.106;11.618;2022-12-18T13:54:55;-3.90;94.60
27368;DHT22;14839;48.106;11.618;2022-12-18T13:57:38;-3.90;94.60
27368;DHT22;14839;48.106;11.618;2022-12-18T14:00:26;-3.80;94.60
27368;DHT22;14839;48.106;11.618;2022-12-18T14:02:54;-3.70;94.60
27368;DHT22;14839;48.106;11.618;2022-12-18T14:05:26;-3.80;94.60
27368;DHT22;14839;48.106;11.618;2022-12-18T14:07:54;-3.90;94.60
27368;DHT22;14839;48.106;11.618;2022-12-18T14:57:34;-4.80;94.60
27368;DHT22;14839;48.106;11.618;2022-12-18T15:48:22;-4.90;94.60
27368;DHT22;14839;48.106;11.618;2022-12-18T15:50:50;-4.90;94.60
27368;DHT22;14839;48.106;11.618;2022-12-18T15:53:18;-4.90;94.60
27368;DHT22;14839;48.106;11.618;2022-12-18T15:55:44;-4.90;94.60
27368;DHT22;14839;48.106;11.618;2022-12-18T15:58:28;-5.00;94.60
27368;DHT22;14839;48.106;11.618;2022-12-18T16:00:58;-5.00;94.60
27368;DHT22;14839;48.106;11.618;2022-12-18T16:07:08;-5.00;94.60
27368;DHT22;14839;48.106;11.618;2022-12-18T16:09:34;-4.90;94.60
27368;DHT22;14839;48.106;11.618;2022-12-18T16:11:59;-4.80;94.60
27368;DHT22;14839;48.106;11.618;2022-12-18T16:14:27;-4.80;94.60
27368;DHT22;14839;48.106;11.618;2022-12-18T16:17:05;-4.80;94.60
27368;DHT22;14839;48.106;11.618;2022-12-18T16:19:47;-4.90;94.60
27368;DHT22;14839;48.106;11.618;2022-12-18T16:22:23;-4.90;94.60
27368;DHT22;14839;48.106;11.618;2022-12-18T16:24:51;-4.90;94.60
27368;DHT22;14839;48.106;11.618;2022-12-18T16:27:17;-5.00;94.60
27368;DHT22;14839;48.106;11.618;2022-12-18T16:29:44;-5.00;94.60
27368;DHT22;14839;48.106;11.618;2022-12-18T16:32:13;-4.90;94.60
27368;DHT22;14839;48.106;11.618;2022-12-18T16:34:40;-4.80;94.60
27368;DHT22;14839;48.106;11.618;2022-12-18T16:37:08;-5.00;94.60
27368;DHT22;14839;48.106;11.618;2022-12-18T16:39:34;-5.20;94.60
27368;DHT22;14839;48.106;11.618;2022-12-18T16:42:02;-5.30;94.60
27368;DHT22;14839;48.106;11.618;2022-12-18T16:44:28;-5.20;94.60
27368;DHT22;14839;48.106;11.618;2022-12-18T16:46:54;-5.20;94.60
27368;DHT22;14839;48.106;11.618;2022-12-18T16:49:20;-5.20;94.60
27368;DHT22;14839;48.106;11.618;2022-12-18T16:51:46;-5.10;94.60
27368;DHT22;14839;48.106;11.618;2022-12-18T16:54:12;-5.10;94.60
27368;DHT22;14839;48.106;11.618;2022-12-18T16:56:38;-5.00;94.60
27368;DHT22;14839;48.106;11.618;2022-12-18T16:59:04;-5.00;94.60
27368;DHT22;14839;48.106;11.618;2022-12-18T17:01:31;-5.00;94.60
27368;DHT22;14839;48.106;11.618;2022-12-18T17:04:04;-5.00;94.60
27368;DHT22;14839;48.106;11.618;2022-12-18T17:06:32;-5.10;94.60
27368;DHT22;14839;48.106;11.618;2022-12-18T17:09:00;-5.30;94.60
27368;DHT22;14839;48.106;11.618;2022-12-18T17:11:27;-5.40;94.60
27368;DHT22;14839;48.106;11.618;2022-12-18T17:13:53;-5.40;94.60
27368;DHT22;14839;48.106;11.618;2022-12-18T17:16:20;-5.50;94.60
27368;DHT22;14839;48.106;11.618;2022-12-18T17:18:46;-5.50;94.60
27368;DHT22;14839;48.106;11.618;2022-12-18T17:21:12;-5.50;94.60
27368;DHT22;14839;48.106;11.618;2022-12-18T17:23:40;-5.50;94.60
27368;DHT22;14839;48.106;11.618;2022-12-18T17:26:05;-5.60;94.60
27368;DHT22;14839;48.106;11.618;2022-12-18T17:28:33;-5.50;94.60
27368;DHT22;14839;48.106;11.618;2022-12-18T17:30:59;-5.40;94.60
27368;DHT22;14839;48.106;11.618;2022-12-18T17:33:25;-5.40;94.60
27368;DHT22;14839;48.106;11.618;2022-12-18T17:35:51;-5.50;94.60
27368;DHT22;14839;48.106;11.618;2022-12-18T17:38:17;-5.40;94.60
27368;DHT22;14839;48.106;11.618;2022-12-18T17:40:42;-5.40;94.60
27368;DHT22;14839;48.106;11.618;2022-12-18T17:43:09;-5.20;94.60
27368;DHT22;14839;48.106;11.618;2022-12-18T17:45:38;-5.10;94.60
27368;DHT22;14839;48.106;11.618;2022-12-18T17:48:05;-5.10;94.60
27368;DHT22;14839;48.106;11.618;2022-12-18T17:50:32;-5.00;94.60
27368;DHT22;14839;48.106;11.618;2022-12-18T17:52:58;-5.00;94.60
27368;DHT22;14839;48.106;11.618;2022-12-18T17:55:24;-5.00;94.60
27368;DHT22;14839;48.106;11.618;2022-12-18T17:57:50;-4.90;94.60
27368;DHT22;14839;48.106;11.618;2022-12-18T18:00:16;-5.00;94.60
27368;DHT22;14839;48.106;11.618;2022-12-18T18:02:42;-4.90;94.60
27368;DHT22;14839;48.106;11.618;2022-12-18T18:05:08;-4.90;94.60
27368;DHT22;14839;48.106;11.618;2022-12-18T18:07:34;-5.20;94.60
27368;DHT22;14839;48.106;11.618;2022-12-18T18:09:59;-5.30;94.60
27368;DHT22;14839;48.106;11.618;2022-12-18T18:12:25;-5.40;94.60
27368;DHT22;14839;48.106;11.618;2022-12-18T18:15:09;-5.50;94.60
27368;DHT22;14839;48.106;11.618;2022-12-18T18:17:35;-5.50;94.60
27368;DHT22;14839;48.106;11.618;2022-12-18T18:20:01;-5.30;94.60
27368;DHT22;14839;48.106;11.618;2022-12-18T18:22:27;-5.30;94.60
27368;DHT22;14839;48.106;11.618;2022-12-18T18:24:52;-5.20;94.60
27368;DHT22;14839;48.106;11.618;2022-12-18T18:27:18;-5.10;94.60
27368;DHT22;14839;48.106;11.618;2022-12-18T18:29:43;-5.10;94.60
27368;DHT22;14839;48.106;11.618;2022-12-18T18:32:09;-5.10;94.60
27368;DHT22;14839;48.106;11.618;2022-12-18T18:34:35;-5.20;94.60
27368;DHT22;14839;48.106;11.618;2022-12-18T18:37:01;-5.20;94.60
27368;DHT22;14839;48.106;11.618;2022-12-18T18:39:27;-5.30;94.60
27368;DHT22;14839;48.106;11.618;2022-12-18T18:41:53;-5.30;94.60
27368;DHT22;14839;48.106;11.618;2022-12-18T18:44:19;-5.40;94.60
27368;DHT22;14839;48.106;11.618;2022-12-18T18:46:46;-5.50;94.60
27368;DHT22;14839;48.106;11.618;2022-12-18T18:49:12;-5.50;94.60
27368;DHT22;14839;48.106;11.618;2022-12-18T18:51:42;-5.50;94.60
27368;DHT22;14839;48.106;11.618;2022-12-18T18:54:08;-5.60;94.60
27368;DHT22;14839;48.106;11.618;2022-12-18T18:56:34;-5.60;94.60
27368;DHT22;14839;48.106;11.618;2022-12-18T18:59:00;-5.60;94.60
27368;DHT22;14839;48.106;11.618;2022-12-18T19:01:25;-5.70;94.60
27368;DHT22;14839;48.106;11.618;2022-12-18T19:03:52;-5.70;94.60
27368;DHT22;14839;48.106;11.618;2022-12-18T19:06:21;-5.70;94.60
27368;DHT22;14839;48.106;11.618;2022-12-18T19:08:49;-5.80;94.60
27368;DHT22;14839;48.106;11.618;2022-12-18T19:11:16;-5.80;94.60
27368;DHT22;14839;48.106;11.618;2022-12-18T19:14:03;-5.80;94.60
27368;DHT22;14839;48.106;11.618;2022-12-18T19:16:29;-5.70;94.60
27368;DHT22;14839;48.106;11.618;2022-12-18T19:18:55;-5.70;94.60
27368;DHT22;14839;48.106;11.618;2022-12-18T19:21:21;-5.60;94.60
27368;DHT22;14839;48.106;11.618;2022-12-18T19:23:47;-5.50;94.60
27368;DHT22;14839;48.106;11.618;2022-12-18T19:26:14;-5.40;94.60
27368;DHT22;14839;48.106;11.618;2022-12-18T19:28:40;-5.40;94.60
27368;DHT22;14839;48.106;11.618;2022-12-18T19:31:07;-5.40;94.60
27368;DHT22;14839;48.106;11.618;2022-12-18T19:33:35;-5.40;94.60
27368;DHT22;14839;48.106;11.618;2022-12-18T19:38:37;-5.50;94.60
27368;DHT22;14839;48.106;11.618;2022-12-18T19:41:04;-5.50;94.60
27368;DHT22;14839;48.106;11.618;2022-12-18T19:43:30;-5.80;94.60
27368;DHT22;14839;48.106;11.618;2022-12-18T19:46:15;-5.80;94.60
27368;DHT22;14839;48.106;11.618;2022-12-18T19:48:42;-5.80;94.60
27368;DHT22;14839;48.106;11.618;2022-12-18T19:51:21;-5.80;94.60
27368;DHT22;14839;48.106;11.618;2022-12-18T19:53:47;-5.80;94.60
27368;DHT22;14839;48.106;11.618;2022-12-18T19:56:15;-5.80;94.60
27368;DHT22;14839;48.106;11.618;2022-12-18T19:58:41;-5.70;94.60
27368;DHT22;14839;48.106;11.618;2022-12-18T20:01:07;-5.60;94.60
27368;DHT22;14839;48.106;11.618;2022-12-18T20:03:33;-5.60;94.60
27368;DHT22;14839;48.106;11.618;2022-12-18T20:06:29;-5.60;94.60
27368;DHT22;14839;48.106;11.618;2022-12-18T20:08:56;-5.60;94.60
27368;DHT22;14839;48.106;11.618;2022-12-18T20:11:22;-5.80;94.60
27368;DHT22;14839;48.106;11.618;2022-12-18T20:13:48;-5.80;94.60
27368;DHT22;14839;48.106;11.618;2022-12-18T20:16:14;-5.70;94.60
27368;DHT22;14839;48.106;11.618;2022-12-18T20:18:39;-5.60;94.60
27368;DHT22;14839;48.106;11.618;2022-12-18T20:21:05;-5.60;94.60
27368;DHT22;14839;48.106;11.618;2022-12-18T20:23:31;-5.50;94.60
27368;DHT22;14839;48.106;11.618;2022-12-18T20:25:57;-5.40;94.60
27368;DHT22;14839;48.106;11.618;2022-12-18T20:28:23;-5.40;94.60
27368;DHT22;14839;48.106;11.618;2022-12-18T20:30:49;-5.40;94.60
27368;DHT22;14839;48.106;11.618;2022-12-18T20:33:16;-5.50;94.60
27368;DHT22;14839;48.106;11.618;2022-12-18T20:35:42;-5.60;94.60
27368;DHT22;14839;48.106;11.618;2022-12-18T20:38:07;-5.70;94.60
27368;DHT22;14839;48.106;11.618;2022-12-18T20:40:33;-5.80;94.60
27368;DHT22;14839;48.106;11.618;2022-12-18T20:42:59;-5.80;94.60
27368;DHT22;14839;48.106;11.618;2022-12-18T20:45:27;-5.80;94.60
27368;DHT22;14839;48.106;11.618;2022-12-18T20:47:54;-5.80;94.60
27368;DHT22;14839;48.106;11.618;2022-12-18T20:50:19;-5.80;94.60
27368;DHT22;14839;48.106;11.618;2022-12-18T20:52:46;-5.90;94.60
27368;DHT22;14839;48.106;11.618;2022-12-18T20:55:12;-5.80;94.60
27368;DHT22;14839;48.106;11.618;2022-12-18T20:57:38;-5.80;94.60
27368;DHT22;14839;48.106;11.618;2022-12-18T21:00:05;-5.70;94.60
27368;DHT22;14839;48.106;11.618;2022-12-18T21:02:31;-5.60;94.60
27368;DHT22;14839;48.106;11.618;2022-12-18T21:04:56;-5.60;94.60
27368;DHT22;14839;48.106;11.618;2022-12-18T21:07:22;-5.50;94.60
27368;DHT22;14839;48.106;11.618;2022-12-18T21:09:48;-5.40;94.60
27368;DHT22;14839;48.106;11.618;2022-12-18T21:12:14;-5.50;94.60
27368;DHT22;14839;48.106;11.618;2022-12-18T21:14:56;-5.40;94.60
27368;DHT22;14839;48.106;11.618;2022-12-18T21:17:24;-5.60;94.60
27368;DHT22;14839;48.106;11.618;2022-12-18T21:19:49;-5.50;94.60
27368;DHT22;14839;48.106;11.618;2022-12-18T21:22:15;-5.40;94.60
27368;DHT22;14839;48.106;11.618;2022-12-18T21:24:41;-5.40;94.60
27368;DHT22;14839;48.106;11.618;2022-12-18T21:27:06;-5.40;94.60
27368;DHT22;14839;48.106;11.618;2022-12-18T21:29:32;-5.40;94.60
27368;DHT22;14839;48.106;11.618;2022-12-18T21:31:59;-5.40;94.60
27368;DHT22;14839;48.106;11.618;2022-12-18T21:34:27;-5.50;94.60
27368;DHT22;14839;48.106;11.618;2022-12-18T21:36:55;-5.50;94.60
27368;DHT22;14839;48.106;11.618;2022-12-18T21:39:22;-5.60;94.60
27368;DHT22;14839;48.106;11.618;2022-12-18T21:41:51;-5.60;94.60
27368;DHT22;14839;48.106;11.618;2022-12-18T21:44:35;-5.70;94.60
27368;DHT22;14839;48.106;11.618;2022-12-18T21:47:01;-5.70;94.60
27368;DHT22;14839;48.106;11.618;2022-12-18T21:49:27;-5.70;94.60
27368;DHT22;14839;48.106;11.618;2022-12-18T21:51:55;-5.60;94.60
27368;DHT22;14839;48.106;11.618;2022-12-18T21:54:21;-5.60;94.60
27368;DHT22;14839;48.106;11.618;2022-12-18T21:56:58;-5.60;94.60
27368;DHT22;14839;48.106;11.618;2022-12-18T21:59:25;-5.60;94.60
27368;DHT22;14839;48.106;11.618;2022-12-18T22:01:52;-5.60;94.60
27368;DHT22;14839;48.106;11.618;2022-12-18T22:04:18;-5.70;94.60
27368;DHT22;14839;48.106;11.618;2022-12-18T22:06:45;-5.70;94.60
27368;DHT22;14839;48.106;11.618;2022-12-18T22:09:13;-5.70;94.60
27368;DHT22;14839;48.106;11.618;2022-12-18T22:11:39;-5.80;94.60
27368;DHT22;14839;48.106;11.618;2022-12-18T22:14:05;-5.80;94.60
27368;DHT22;14839;48.106;11.618;2022-12-18T22:16:31;-5.80;94.60
27368;DHT22;14839;48.106;11.618;2022-12-18T22:18:57;-5.80;94.60
27368;DHT22;14839;48.106;11.618;2022-12-18T22:21:28;-5.70;94.60
27368;DHT22;14839;48.106;11.618;2022-12-18T22:23:57;-5.80;94.60
27368;DHT22;14839;48.106;11.618;2022-12-18T22:26:25;-5.80;94.60
27368;DHT22;14839;48.106;11.618;2022-12-18T22:28:51;-5.80;94.60
